createdAt,value
2017-09-01T00:02:19.687Z,20.05
2017-09-01T00:04:46.169Z,20.04
2017-09-01T00:07:12.602Z,20.03
2017-09-01T00:09:39.754Z,19.99
2017-09-01T00:12:06.190Z,20.00
2017-09-01T00:14:32.624Z,19.98
2017-09-01T00:16:59.059Z,19.99
2017-09-01T00:19:25.494Z,19.94
2017-09-01T00:21:51.931Z,19.97
2017-09-01T00:24:18.363Z,20.02
2017-09-01T00:26:45.515Z,20.08
2017-09-01T00:29:11.950Z,20.13
2017-09-01T00:31:38.487Z,20.11
2017-09-01T00:34:04.924Z,20.03
2017-09-01T00:36:31.355Z,19.99
2017-09-01T00:38:57.797Z,19.91
2017-09-01T00:41:24.227Z,19.79
2017-09-01T00:43:51.481Z,19.55
2017-09-01T00:46:17.916Z,19.43
2017-09-01T00:48:44.454Z,19.44
2017-09-01T00:51:10.871Z,19.36
2017-09-01T00:53:37.325Z,19.18
2017-09-01T00:56:03.757Z,18.97
2017-09-01T00:58:30.193Z,18.85
2017-09-01T01:00:57.447Z,18.89
2017-09-01T01:03:23.882Z,18.90
2017-09-01T01:05:50.319Z,18.77
2017-09-01T01:08:16.751Z,18.57
2017-09-01T01:10:43.188Z,18.64
2017-09-01T01:13:09.578Z,18.45
2017-09-01T01:15:36.057Z,18.35
2017-09-01T01:18:03.224Z,18.40
2017-09-01T01:20:29.747Z,18.32
2017-09-01T01:22:56.182Z,18.26
2017-09-01T01:25:22.613Z,18.23
2017-09-01T01:27:49.015Z,18.24
2017-09-01T01:30:15.486Z,18.28
2017-09-01T01:32:41.920Z,18.39
2017-09-01T01:35:09.023Z,18.42
2017-09-01T01:37:35.515Z,18.43
2017-09-01T01:40:01.942Z,18.39
2017-09-01T01:42:28.479Z,18.33
2017-09-01T01:44:54.915Z,18.20
2017-09-01T01:47:21.349Z,18.15
2017-09-01T01:49:47.783Z,18.06
2017-09-01T01:52:14.987Z,17.96
2017-09-01T01:54:41.473Z,17.95
2017-09-01T01:57:07.908Z,17.93
2017-09-01T01:59:34.444Z,17.89
2017-09-01T02:02:00.882Z,17.77
2017-09-01T02:04:27.314Z,17.68
2017-09-01T02:06:53.750Z,17.50
2017-09-01T02:09:20.900Z,17.44
2017-09-01T02:11:47.338Z,17.46
2017-09-01T02:14:13.773Z,17.51
2017-09-01T02:16:40.208Z,17.38
2017-09-01T02:19:06.644Z,17.20
2017-09-01T02:21:33.027Z,17.03
2017-09-01T02:23:59.510Z,16.89
2017-09-01T02:26:26.662Z,16.99
2017-09-01T02:28:53.052Z,17.11
2017-09-01T02:31:19.531Z,17.16
2017-09-01T02:33:45.966Z,17.27
2017-09-01T02:36:12.401Z,17.33
2017-09-01T02:38:38.836Z,17.38
2017-09-01T02:41:05.271Z,17.42
2017-09-01T02:43:32.424Z,17.44
2017-09-01T02:45:58.859Z,17.43
2017-09-01T02:48:25.294Z,17.37
2017-09-01T02:50:51.727Z,17.24
2017-09-01T02:53:18.163Z,17.17
2017-09-01T02:55:44.598Z,17.19
2017-09-01T02:58:11.134Z,17.27
2017-09-01T03:00:38.289Z,17.22
2017-09-01T03:03:04.722Z,17.12
2017-09-01T03:05:31.261Z,16.95
2017-09-01T03:07:57.693Z,16.98
2017-09-01T03:10:24.231Z,17.03
2017-09-01T03:12:50.675Z,16.95
2017-09-01T03:15:17.102Z,16.90
2017-09-01T03:17:44.247Z,16.87
2017-09-01T03:20:10.790Z,16.93
2017-09-01T03:22:37.224Z,16.87
2017-09-01T03:25:03.659Z,16.79
2017-09-01T03:27:30.106Z,16.77
2017-09-01T03:29:56.531Z,16.74
2017-09-01T03:32:22.965Z,16.81
2017-09-01T03:34:50.219Z,16.85
2017-09-01T03:37:16.653Z,16.97
2017-09-01T03:39:43.040Z,17.00
2017-09-01T03:42:09.521Z,17.01
2017-09-01T03:44:35.960Z,17.10
2017-09-01T03:47:02.391Z,17.15
2017-09-01T03:49:28.833Z,17.09
2017-09-01T03:51:55.982Z,17.10
2017-09-01T03:54:22.416Z,17.14
2017-09-01T03:56:48.870Z,17.14
2017-09-01T03:59:15.269Z,17.09
2017-09-01T04:01:41.716Z,16.99
2017-09-01T04:04:08.151Z,17.03
2017-09-01T04:06:34.588Z,17.05
2017-09-01T04:09:01.740Z,17.05
2017-09-01T04:11:28.172Z,17.07
2017-09-01T04:13:54.609Z,17.06
2017-09-01T04:16:20.990Z,17.12
2017-09-01T04:18:47.480Z,17.16
2017-09-01T04:21:13.914Z,17.19
2017-09-01T04:23:40.452Z,17.21
2017-09-01T04:26:07.500Z,17.17
2017-09-01T04:28:33.935Z,17.13
2017-09-01T04:31:00.370Z,17.29
2017-09-01T04:33:26.805Z,17.42
2017-09-01T04:35:53.241Z,17.50
2017-09-01T04:38:19.675Z,17.59
2017-09-01T04:40:46.110Z,17.64
2017-09-01T04:43:13.369Z,17.71
2017-09-01T04:45:39.798Z,17.80
2017-09-01T04:48:06.234Z,17.89
2017-09-01T04:50:32.669Z,17.99
2017-09-01T04:52:59.104Z,18.08
2017-09-01T04:55:25.538Z,18.11
2017-09-01T04:57:51.975Z,18.21
2017-09-01T05:00:19.227Z,18.34
2017-09-01T05:02:45.664Z,18.48
2017-09-01T05:05:12.097Z,18.58
2017-09-01T05:07:38.533Z,18.69
2017-09-01T05:10:04.968Z,18.81
2017-09-01T05:12:31.402Z,18.91
2017-09-01T05:14:57.837Z,19.01
2017-09-01T05:17:25.078Z,19.17
2017-09-01T05:19:51.525Z,19.34
2017-09-01T05:22:17.965Z,19.49
2017-09-01T05:24:44.397Z,19.61
2017-09-01T05:27:10.827Z,19.77
2017-09-01T05:29:37.270Z,19.90
2017-09-01T05:32:03.700Z,20.05
2017-09-01T05:34:30.954Z,20.24
2017-09-01T05:36:57.391Z,20.38
2017-09-01T05:39:23.827Z,20.50
2017-09-01T05:41:50.363Z,20.65
2017-09-01T05:44:16.796Z,20.78
2017-09-01T05:46:43.195Z,20.90
2017-09-01T05:49:09.668Z,21.02
2017-09-01T05:51:36.818Z,21.13
2017-09-01T05:54:03.253Z,21.25
2017-09-01T05:56:29.688Z,21.35
2017-09-01T05:58:56.119Z,21.46
2017-09-01T06:01:22.559Z,21.61
2017-09-01T06:03:49.611Z,21.75
2017-09-01T06:06:16.048Z,21.84
2017-09-01T06:08:42.476Z,21.92
2017-09-01T06:11:08.915Z,22.03
2017-09-01T06:13:35.653Z,22.15
2017-09-01T06:16:02.088Z,22.21
2017-09-01T06:18:28.523Z,22.30
2017-09-01T06:20:54.958Z,22.41
2017-09-01T06:23:21.393Z,22.51
2017-09-01T06:25:47.830Z,22.64
2017-09-01T06:28:14.961Z,22.63
2017-09-01T06:30:41.415Z,22.63
2017-09-01T06:33:07.952Z,22.83
2017-09-01T06:35:34.692Z,22.93
2017-09-01T06:38:01.538Z,23.08
2017-09-01T06:40:27.974Z,23.14
2017-09-01T06:42:54.510Z,23.23
2017-09-01T06:45:21.000Z,23.40
2017-09-01T06:47:47.482Z,23.41
2017-09-01T06:50:14.020Z,23.50
2017-09-01T06:52:40.864Z,23.52
2017-09-01T06:55:07.305Z,23.68
2017-09-01T06:57:33.733Z,23.81
2017-09-01T07:00:00.439Z,23.93
2017-09-01T07:02:27.015Z,24.01
2017-09-01T07:04:53.449Z,24.05
2017-09-01T07:07:20.144Z,24.11
2017-09-01T07:09:46.625Z,24.26
2017-09-01T07:12:13.062Z,24.43
2017-09-01T07:14:39.856Z,24.55
2017-09-01T07:17:06.677Z,24.67
2017-09-01T07:19:33.696Z,24.82
2017-09-01T07:22:00.336Z,24.95
2017-09-01T07:24:27.034Z,25.08
2017-09-01T07:26:53.517Z,25.24
2017-09-01T07:29:20.257Z,25.31
2017-09-01T07:31:46.689Z,25.42
2017-09-01T07:34:13.179Z,25.55
2017-09-01T07:36:40.023Z,25.76
2017-09-01T07:39:06.506Z,25.68
2017-09-01T07:41:32.894Z,25.76
2017-09-01T07:44:00.322Z,25.88
2017-09-01T07:46:26.832Z,25.98
2017-09-01T07:48:53.220Z,26.02
2017-09-01T07:51:20.320Z,26.11
2017-09-01T07:53:46.959Z,26.19
2017-09-01T07:56:13.394Z,26.26
2017-09-01T07:58:40.092Z,26.39
2017-09-01T08:01:06.578Z,26.56
2017-09-01T08:03:33.107Z,26.72
2017-09-01T08:05:59.954Z,26.83
2017-09-01T08:08:26.369Z,27.00
2017-09-01T08:10:53.030Z,27.08
2017-09-01T08:13:19.668Z,27.17
2017-09-01T08:15:46.204Z,27.35
2017-09-01T08:18:12.742Z,27.50
2017-09-01T08:20:39.689Z,27.58
2017-09-01T08:23:06.233Z,27.61
2017-09-01T08:25:32.723Z,27.60
2017-09-01T08:27:59.633Z,27.66
2017-09-01T08:30:26.145Z,27.74
2017-09-01T08:32:52.771Z,27.93
2017-09-01T08:35:19.656Z,28.06
2017-09-01T08:37:46.461Z,28.20
2017-09-01T08:40:12.907Z,28.26
2017-09-01T08:42:39.695Z,28.26
2017-09-01T08:45:06.188Z,28.20
2017-09-01T08:47:32.622Z,28.31
2017-09-01T08:49:59.270Z,28.39
2017-09-01T08:52:25.804Z,28.50
2017-09-01T08:54:52.235Z,28.58
2017-09-01T08:57:18.872Z,28.70
2017-09-01T08:59:45.312Z,28.68
2017-09-01T09:02:11.848Z,28.68
2017-09-01T09:04:38.896Z,28.68
2017-09-01T09:07:05.432Z,28.83
2017-09-01T09:09:31.867Z,28.93
2017-09-01T09:11:58.713Z,28.98
2017-09-01T09:14:25.129Z,29.06
2017-09-01T09:16:51.572Z,29.20
2017-09-01T09:19:18.116Z,29.19
2017-09-01T09:21:44.554Z,29.17
2017-09-01T09:24:10.992Z,29.02
2017-09-01T09:26:37.835Z,29.09
2017-09-01T09:29:04.269Z,29.20
2017-09-01T09:31:30.654Z,29.27
2017-09-01T09:33:57.548Z,29.30
2017-09-01T09:36:23.983Z,29.34
2017-09-01T09:38:50.519Z,29.41
2017-09-01T09:41:17.161Z,29.53
2017-09-01T09:43:43.663Z,29.49
2017-09-01T09:46:10.087Z,29.51
2017-09-01T09:48:36.672Z,29.61
2017-09-01T09:51:03.105Z,29.78
2017-09-01T09:53:29.640Z,29.86
2017-09-01T09:55:56.383Z,29.85
2017-09-01T09:58:22.921Z,29.86
2017-09-01T10:00:49.306Z,29.95
2017-09-01T10:03:16.098Z,30.01
2017-09-01T10:05:42.533Z,30.12
2017-09-01T10:08:08.968Z,30.26
2017-09-01T10:10:35.403Z,30.33
2017-09-01T10:13:01.943Z,30.43
2017-09-01T10:15:28.579Z,30.58
2017-09-01T10:17:54.966Z,30.59
2017-09-01T10:20:21.444Z,30.77
2017-09-01T10:22:48.090Z,30.59
2017-09-01T10:25:14.728Z,30.60
2017-09-01T10:27:41.243Z,30.59
2017-09-01T10:30:07.687Z,30.64
2017-09-01T10:32:34.229Z,30.70
2017-09-01T10:35:00.676Z,30.82
2017-09-01T10:37:27.109Z,30.89
2017-09-01T10:39:53.536Z,31.00
2017-09-01T10:42:20.387Z,30.98
2017-09-01T10:44:46.823Z,31.12
2017-09-01T10:47:13.207Z,31.19
2017-09-01T10:49:39.683Z,31.18
2017-09-01T10:52:06.231Z,31.23
2017-09-01T10:54:32.665Z,31.42
2017-09-01T10:56:59.098Z,31.45
2017-09-01T10:59:26.046Z,31.41
2017-09-01T11:01:52.477Z,31.40
2017-09-01T11:04:18.916Z,31.30
2017-09-01T11:06:45.350Z,31.38
2017-09-01T11:09:12.401Z,31.41
2017-09-01T11:11:38.837Z,31.44
2017-09-01T11:14:05.271Z,31.55
2017-09-01T11:16:31.704Z,31.48
2017-09-01T11:18:58.141Z,31.51
2017-09-01T11:21:24.866Z,31.72
2017-09-01T11:23:51.419Z,31.99
2017-09-01T11:26:17.854Z,32.46
2017-09-01T11:28:44.290Z,33.13
2017-09-01T11:31:10.724Z,33.70
2017-09-01T11:33:37.875Z,34.53
2017-09-01T11:36:04.516Z,35.20
2017-09-01T11:38:30.900Z,35.64
2017-09-01T11:40:57.385Z,36.29
2017-09-01T11:43:24.232Z,36.31
2017-09-01T11:45:50.664Z,36.80
2017-09-01T11:48:17.919Z,37.07
2017-09-01T11:50:44.657Z,37.42
2017-09-01T11:53:11.096Z,37.91
2017-09-01T11:55:37.531Z,38.31
2017-09-01T11:58:04.071Z,38.75
2017-09-01T12:00:30.710Z,38.69
2017-09-01T12:02:57.246Z,39.25
2017-09-01T12:05:23.679Z,39.16
2017-09-01T12:07:50.114Z,39.69
2017-09-01T12:10:16.960Z,40.44
2017-09-01T12:12:43.496Z,40.63
2017-09-01T12:15:09.905Z,40.59
2017-09-01T12:17:36.366Z,41.36
2017-09-01T12:20:03.213Z,42.15
2017-09-01T12:22:29.747Z,42.52
2017-09-01T12:24:56.184Z,42.56
2017-09-01T12:27:23.029Z,42.24
2017-09-01T12:29:49.461Z,42.01
2017-09-01T12:32:16.002Z,41.95
2017-09-01T12:34:42.433Z,41.91
2017-09-01T12:37:09.538Z,41.99
2017-09-01T12:39:35.997Z,42.62
2017-09-01T12:42:02.561Z,43.44
2017-09-01T12:44:28.944Z,43.89
2017-09-01T12:46:55.404Z,44.40
2017-09-01T12:49:21.849Z,44.47
2017-09-01T12:51:48.292Z,44.77
2017-09-01T12:54:14.733Z,45.43
2017-09-01T12:56:41.079Z,45.56
2017-09-01T12:59:07.501Z,45.56
2017-09-01T13:01:34.640Z,45.59
2017-09-01T13:04:01.084Z,45.55
2017-09-01T13:06:27.521Z,45.34
2017-09-01T13:08:53.955Z,45.13
2017-09-01T13:11:20.340Z,44.77
2017-09-01T13:13:46.825Z,44.79
2017-09-01T13:16:13.464Z,44.60
2017-09-01T13:18:39.909Z,44.27
2017-09-01T13:21:06.335Z,44.60
2017-09-01T13:23:33.178Z,44.99
2017-09-01T13:25:59.614Z,45.83
2017-09-01T13:28:26.050Z,46.34
2017-09-01T13:30:52.958Z,45.96
2017-09-01T13:33:19.485Z,46.47
2017-09-01T13:35:46.686Z,46.75
2017-09-01T13:38:13.939Z,47.45
2017-09-01T13:40:40.333Z,47.16
2017-09-01T13:43:06.911Z,46.91
2017-09-01T13:45:33.863Z,46.92
2017-09-01T13:48:00.498Z,46.52
2017-09-01T13:50:26.995Z,46.26
2017-09-01T13:52:53.877Z,45.97
2017-09-01T13:55:20.322Z,45.74
2017-09-01T13:57:46.853Z,46.26
2017-09-01T14:00:13.389Z,45.58
2017-09-01T14:02:39.927Z,45.72
2017-09-01T14:05:06.716Z,45.19
2017-09-01T14:07:33.612Z,44.91
2017-09-01T14:10:00.054Z,44.16
2017-09-01T14:12:26.677Z,42.51
2017-09-01T14:14:53.536Z,40.81
2017-09-01T14:17:20.894Z,39.81
2017-09-01T14:19:48.145Z,39.08
2017-09-01T14:22:15.095Z,38.38
2017-09-01T14:24:41.489Z,37.77
2017-09-01T14:27:07.965Z,37.25
2017-09-01T14:29:34.601Z,36.97
2017-09-01T14:32:01.139Z,36.32
2017-09-01T14:34:27.573Z,35.94
2017-09-01T14:36:54.113Z,35.62
2017-09-01T14:39:20.648Z,35.25
2017-09-01T14:41:47.144Z,35.00
2017-09-01T14:44:15.326Z,34.59
2017-09-01T14:46:42.006Z,34.30
2017-09-01T14:49:10.825Z,34.21
2017-09-01T14:51:37.635Z,34.06
2017-09-01T14:54:04.172Z,33.76
2017-09-01T14:56:30.674Z,33.69
2017-09-01T14:58:57.555Z,33.60
2017-09-01T15:01:24.088Z,33.56
2017-09-01T15:03:50.634Z,33.58
2017-09-01T15:06:17.270Z,33.57
2017-09-01T15:08:43.806Z,33.34
2017-09-01T15:11:10.449Z,33.28
2017-09-01T15:13:37.802Z,33.28
2017-09-01T15:16:04.341Z,33.24
2017-09-01T15:18:30.786Z,33.16
2017-09-01T15:20:57.621Z,33.06
2017-09-01T15:23:24.051Z,32.94
2017-09-01T15:25:50.435Z,32.85
2017-09-01T15:28:17.310Z,32.77
2017-09-01T15:30:43.756Z,32.76
2017-09-01T15:33:10.206Z,32.70
2017-09-01T15:35:36.843Z,32.61
2017-09-01T15:38:03.389Z,32.57
2017-09-01T15:40:29.917Z,32.43
2017-09-01T15:42:56.762Z,32.41
2017-09-01T15:45:23.197Z,32.36
2017-09-01T15:47:49.633Z,32.29
2017-09-01T15:50:16.067Z,32.22
2017-09-01T15:52:42.858Z,32.17
2017-09-01T15:55:09.243Z,32.08
2017-09-01T15:57:35.678Z,31.98
2017-09-01T16:00:02.525Z,32.02
2017-09-01T16:02:28.907Z,31.92
2017-09-01T16:04:55.380Z,31.83
2017-09-01T16:07:22.238Z,31.65
2017-09-01T16:09:48.672Z,31.62
2017-09-01T16:12:15.109Z,31.54
2017-09-01T16:14:41.728Z,31.45
2017-09-01T16:17:08.181Z,31.35
2017-09-01T16:19:34.823Z,31.24
2017-09-01T16:22:01.563Z,31.22
2017-09-01T16:24:27.998Z,31.08
2017-09-01T16:26:54.433Z,30.88
2017-09-01T16:29:21.277Z,30.75
2017-09-01T16:31:47.706Z,30.64
2017-09-01T16:34:14.352Z,30.44
2017-09-01T16:36:41.197Z,30.35
2017-09-01T16:39:07.634Z,30.26
2017-09-01T16:41:34.067Z,30.14
2017-09-01T16:44:01.425Z,29.98
2017-09-01T16:46:27.842Z,29.88
2017-09-01T16:48:54.394Z,29.83
2017-09-01T16:51:21.138Z,29.76
2017-09-01T16:53:47.574Z,29.65
2017-09-01T16:56:14.009Z,29.51
2017-09-01T16:58:40.852Z,29.39
2017-09-01T17:01:07.289Z,29.25
2017-09-01T17:03:33.826Z,29.14
2017-09-01T17:06:00.876Z,29.01
2017-09-01T17:08:27.309Z,28.83
2017-09-01T17:10:53.740Z,28.73
2017-09-01T17:13:20.280Z,28.64
2017-09-01T17:15:46.872Z,28.53
2017-09-01T17:18:13.356Z,28.47
2017-09-01T17:20:39.892Z,28.41
2017-09-01T17:23:06.901Z,28.28
2017-09-01T17:25:33.374Z,28.20
2017-09-01T17:27:59.817Z,28.10
2017-09-01T17:30:26.758Z,28.00
2017-09-01T17:32:53.399Z,27.90
2017-09-01T17:35:19.934Z,27.84
2017-09-01T17:37:46.984Z,27.80
2017-09-01T17:40:14.034Z,27.74
2017-09-01T17:42:40.470Z,27.58
2017-09-01T17:45:06.903Z,27.50
2017-09-01T17:47:33.337Z,27.42
2017-09-01T17:49:59.773Z,27.32
2017-09-01T17:52:26.212Z,27.21
2017-09-01T17:54:52.747Z,27.12
2017-09-01T17:57:19.288Z,27.09
2017-09-01T17:59:45.718Z,27.03
2017-09-01T18:02:12.255Z,26.84
2017-09-01T18:04:38.691Z,26.67
2017-09-01T18:07:05.432Z,26.68
2017-09-01T18:09:31.867Z,26.55
2017-09-01T18:11:58.301Z,26.43
2017-09-01T18:14:24.740Z,26.40
2017-09-01T18:16:51.154Z,26.30
2017-09-01T18:19:17.607Z,26.17
2017-09-01T18:21:44.041Z,26.08
2017-09-01T18:24:10.475Z,26.03
2017-09-01T18:26:36.870Z,26.01
2017-09-01T18:29:03.346Z,26.03
2017-09-01T18:31:29.781Z,25.96
2017-09-01T18:33:56.318Z,25.84
2017-09-01T18:36:22.752Z,25.76
2017-09-01T18:38:49.194Z,25.72
2017-09-01T18:41:15.623Z,25.64
2017-09-01T18:43:42.059Z,25.62
2017-09-01T18:46:08.494Z,25.57
2017-09-01T18:48:34.912Z,25.58
2017-09-01T18:51:01.390Z,25.57
2017-09-01T18:53:27.896Z,25.48
2017-09-01T18:55:54.337Z,25.39
2017-09-01T18:58:20.724Z,25.33
2017-09-01T19:00:47.250Z,25.28
2017-09-01T19:03:13.638Z,25.25
2017-09-01T19:05:40.074Z,25.20
2017-09-01T19:08:06.509Z,25.21
2017-09-01T19:10:32.947Z,25.19
2017-09-01T19:12:59.379Z,25.19
2017-09-01T19:15:25.813Z,25.12
2017-09-01T19:17:52.245Z,25.12
2017-09-01T19:20:18.689Z,25.06
2017-09-01T19:22:45.115Z,25.04
2017-09-01T19:25:11.554Z,24.91
2017-09-01T19:27:37.988Z,24.83
2017-09-01T19:30:04.417Z,24.75
2017-09-01T19:32:30.857Z,24.68
2017-09-01T19:34:57.292Z,24.69
2017-09-01T19:37:23.829Z,24.72
2017-09-01T19:39:50.265Z,24.76
2017-09-01T19:42:16.701Z,24.73
2017-09-01T19:44:43.135Z,24.74
2017-09-01T19:47:09.569Z,24.64
2017-09-01T19:49:36.005Z,24.54
2017-09-01T19:52:02.440Z,24.53
2017-09-01T19:54:28.829Z,24.45
2017-09-01T19:56:55.309Z,24.30
2017-09-01T19:59:21.744Z,24.18
2017-09-01T20:01:48.281Z,24.17
2017-09-01T20:04:15.023Z,24.17
2017-09-01T20:06:41.460Z,24.11
2017-09-01T20:09:07.879Z,23.92
2017-09-01T20:11:34.330Z,23.81
2017-09-01T20:14:00.763Z,23.73
2017-09-01T20:16:27.199Z,23.65
2017-09-01T20:18:53.633Z,23.67
2017-09-01T20:21:20.070Z,23.59
2017-09-01T20:23:46.546Z,23.52
2017-09-01T20:26:13.041Z,23.43
2017-09-01T20:28:39.476Z,23.37
2017-09-01T20:31:05.911Z,23.33
2017-09-01T20:33:32.344Z,23.30
2017-09-01T20:35:58.744Z,23.35
2017-09-01T20:38:25.215Z,23.43
2017-09-01T20:40:51.851Z,23.48
2017-09-01T20:43:18.289Z,23.38
2017-09-01T20:45:44.724Z,23.25
2017-09-01T20:48:11.162Z,23.23
2017-09-01T20:50:37.596Z,23.29
2017-09-01T20:53:04.029Z,23.27
2017-09-01T20:55:30.463Z,23.27
2017-09-01T20:57:57.512Z,23.27
2017-09-01T21:00:23.951Z,23.13
2017-09-01T21:02:50.385Z,22.87
2017-09-01T21:05:16.816Z,22.77
2017-09-01T21:07:43.255Z,22.79
2017-09-01T21:10:09.693Z,22.75
2017-09-01T21:12:36.123Z,22.73
2017-09-01T21:15:02.530Z,22.67
2017-09-01T21:17:28.968Z,22.71
2017-09-01T21:19:55.437Z,22.65
2017-09-01T21:22:21.861Z,22.66
2017-09-01T21:24:48.301Z,22.49
2017-09-01T21:27:14.731Z,22.52
2017-09-01T21:29:41.166Z,22.52
2017-09-01T21:32:07.601Z,22.50
2017-09-01T21:34:34.044Z,22.36
2017-09-01T21:37:00.471Z,22.22
2017-09-01T21:39:26.902Z,22.13
2017-09-01T21:41:53.299Z,22.18
2017-09-01T21:44:19.763Z,22.19
2017-09-01T21:46:46.210Z,22.18
2017-09-01T21:49:12.646Z,22.20
2017-09-01T21:51:39.069Z,22.23
2017-09-01T21:54:05.515Z,22.14
2017-09-01T21:56:31.950Z,22.09
2017-09-01T21:58:58.385Z,22.06
2017-09-01T22:01:24.821Z,22.07
2017-09-01T22:03:51.257Z,22.10
2017-09-01T22:06:17.691Z,22.11
2017-09-01T22:08:44.229Z,22.12
2017-09-01T22:11:10.662Z,22.11
2017-09-01T22:13:37.814Z,22.05
2017-09-01T22:16:04.248Z,21.96
2017-09-01T22:18:30.665Z,21.88
2017-09-01T22:20:57.109Z,21.85
2017-09-01T22:23:23.463Z,21.79
2017-09-01T22:25:49.870Z,21.77
2017-09-01T22:28:16.311Z,21.72
2017-09-01T22:30:42.754Z,21.63
2017-09-01T22:33:09.139Z,21.68
2017-09-01T22:35:35.523Z,21.76
2017-09-01T22:38:01.961Z,21.70
2017-09-01T22:40:28.393Z,21.66
2017-09-01T22:42:54.867Z,21.65
2017-09-01T22:45:21.365Z,21.63
2017-09-01T22:47:47.803Z,21.60
2017-09-01T22:50:14.235Z,21.50
2017-09-01T22:52:40.669Z,21.47
2017-09-01T22:55:07.103Z,21.45
2017-09-01T22:57:33.540Z,21.40
2017-09-01T22:59:59.966Z,21.38
2017-09-01T23:02:26.408Z,21.38
2017-09-01T23:04:52.797Z,21.38
2017-09-01T23:07:19.280Z,21.35
2017-09-01T23:09:45.713Z,21.27
2017-09-01T23:12:12.250Z,21.16
2017-09-01T23:14:38.687Z,21.01
2017-09-01T23:17:05.121Z,20.91
2017-09-01T23:19:31.556Z,20.81
2017-09-01T23:21:57.990Z,20.82
2017-09-01T23:24:24.525Z,20.77
2017-09-01T23:26:50.964Z,20.65
2017-09-01T23:29:17.399Z,20.52
2017-09-01T23:31:43.832Z,20.57
2017-09-01T23:34:10.267Z,20.55
2017-09-01T23:36:36.702Z,20.45
2017-09-01T23:39:03.138Z,20.42
2017-09-01T23:41:29.575Z,20.34
2017-09-01T23:43:56.112Z,20.39
2017-09-01T23:46:22.546Z,20.43
2017-09-01T23:48:48.980Z,20.38
2017-09-01T23:51:15.413Z,20.32
2017-09-01T23:53:41.848Z,20.23
2017-09-01T23:56:08.285Z,20.06
2017-09-01T23:58:34.719Z,20.03
